Time;durP1;ratioP1;P1;durP2;ratioP2;P2;SDS_P1;SDS_P2;PMS_P1;PMS_P2;Temp;Humidity;BMP_temperature;BMP_pressure;BME280_temperature;BME280_humidity;BME280_pressure;Samples;Min_cycle;Max_cycle;Signal;HPM_P1;HPM_P2
2023/05/04 00:01:48;;;;;;;4.43;4.03;;;10.60;99.90;12.20;97405.00;;;;5098537;28;20280;-70
2023/05/04 00:04:37;;;;;;;5.07;4.57;;;10.50;99.90;12.20;97402.00;;;;5084142;28;20226;-69
2023/05/04 00:07:26;;;;;;;5.00;4.50;;;10.50;99.90;12.20;97394.00;;;;5081383;28;20218;-70
2023/05/04 00:10:14;;;;;;;3.60;3.30;;;10.50;99.90;12.10;97393.00;;;;5080222;28;20199;-70
2023/05/04 00:13:03;;;;;;;3.33;3.07;;;10.50;99.90;12.00;97394.00;;;;5106436;28;20268;-69
2023/05/04 00:15:52;;;;;;;3.67;3.37;;;10.40;99.90;11.90;97398.00;;;;5094634;28;20216;-69
2023/05/04 00:18:42;;;;;;;5.63;3.80;;;10.40;99.90;12.10;97399.00;;;;5089557;28;20724;-69
2023/05/04 00:21:31;;;;;;;3.97;3.57;;;10.30;99.90;12.10;97389.00;;;;5098484;28;20215;-70
2023/05/04 00:24:19;;;;;;;5.17;4.30;;;10.30;99.90;12.10;97384.00;;;;5093760;28;20248;-70
2023/05/04 00:27:09;;;;;;;5.70;3.57;;;10.20;99.90;12.00;97385.00;;;;5102767;28;20641;-70
2023/05/04 00:29:57;;;;;;;4.37;3.93;;;10.20;99.90;11.90;97395.00;;;;5095070;28;20545;-70
2023/05/04 00:32:46;;;;;;;4.17;3.77;;;10.10;99.90;11.90;97388.00;;;;5091352;28;20255;-70
2023/05/04 00:35:36;;;;;;;6.73;4.47;;;10.00;99.90;11.80;97398.00;;;;5101330;28;20237;-70
2023/05/04 00:38:25;;;;;;;3.93;3.60;;;9.90;99.90;11.80;97385.00;;;;5094271;28;20281;-70
2023/05/04 00:41:13;;;;;;;4.33;3.93;;;9.90;99.90;11.50;97393.00;;;;5089719;28;20206;-70
2023/05/04 00:44:03;;;;;;;3.40;3.07;;;9.80;99.90;11.40;97382.00;;;;5097253;28;20199;-70
2023/05/04 00:46:52;;;;;;;3.63;3.20;;;9.70;99.90;11.40;97390.00;;;;5083430;28;20683;-69
2023/05/04 00:49:41;;;;;;;4.30;3.70;;;9.60;99.90;11.50;97385.00;;;;5092712;28;20195;-69
2023/05/04 00:52:31;;;;;;;5.20;3.70;;;9.60;99.90;11.30;97386.00;;;;5096186;28;20257;-69
2023/05/04 00:55:20;;;;;;;5.50;3.53;;;9.50;99.90;11.20;97388.00;;;;5085577;28;20206;-70
2023/05/04 00:58:09;;;;;;;5.37;3.90;;;9.40;99.90;11.20;97392.00;;;;5088348;28;20665;-69
2023/05/04 01:00:58;;;;;;;4.23;3.57;;;9.40;99.90;11.10;97397.00;;;;5084064;28;20613;-69
2023/05/04 01:03:47;;;;;;;4.13;3.80;;;9.30;99.90;10.80;97388.00;;;;5083194;28;20266;-69
2023/05/04 01:06:44;;;;;;;5.97;3.23;;;9.20;99.90;10.80;97385.00;;;;5089476;28;21117;-69
2023/05/04 01:09:40;;;;;;;4.27;3.87;;;9.10;99.90;10.60;97375.00;;;;5094049;28;20250;-69
2023/05/04 01:12:38;;;;;;;3.83;3.50;;;9.00;99.90;10.50;97377.00;;;;5101287;28;20299;-69
2023/05/04 01:15:27;;;;;;;4.07;3.63;;;8.90;99.90;10.40;97386.00;;;;5092751;28;20210;-69
2023/05/04 01:18:16;;;;;;;5.00;4.03;;;8.80;99.90;10.40;97386.00;;;;5084248;28;20747;-69
2023/05/04 01:21:05;;;;;;;4.90;3.83;;;8.70;99.90;10.20;97386.00;;;;5095277;28;20199;-69
2023/05/04 01:23:56;;;;;;;4.23;3.77;;;8.60;99.90;10.00;97380.00;;;;5098757;28;20249;-69
2023/05/04 01:26:48;;;;;;;6.23;3.30;;;8.50;99.90;10.10;97389.00;;;;5094009;28;20229;-69
2023/05/04 01:29:45;;;;;;;3.90;3.60;;;8.40;99.90;9.90;97388.00;;;;5097892;28;20191;-69
2023/05/04 01:32:37;;;;;;;4.10;3.70;;;8.40;99.90;10.00;97386.00;;;;5092026;28;20300;-69
2023/05/04 01:35:26;;;;;;;4.70;3.90;;;8.30;99.90;9.80;97390.00;;;;5096233;28;20206;-69
2023/05/04 01:38:15;;;;;;;3.97;3.47;;;8.20;99.90;9.50;97385.00;;;;5091836;28;20245;-69
2023/05/04 01:41:05;;;;;;;3.70;3.27;;;8.10;99.90;9.50;97386.00;;;;5094291;28;20207;-69
2023/05/04 01:43:54;;;;;;;4.03;3.57;;;8.00;99.90;9.50;97382.00;;;;5107253;28;20367;-69
2023/05/04 01:46:43;;;;;;;5.27;3.97;;;7.90;99.90;9.30;97369.00;;;;5079941;28;20215;-69
2023/05/04 01:49:31;;;;;;;5.97;3.80;;;7.80;99.90;8.90;97383.00;;;;5086435;28;20199;-68
2023/05/04 01:52:20;;;;;;;3.87;3.30;;;7.70;99.90;8.80;97381.00;;;;5091376;28;20227;-68
2023/05/04 01:55:10;;;;;;;6.93;4.57;;;7.60;99.90;8.50;97376.00;;;;5095880;28;20225;-68
2023/05/04 01:58:00;;;;;;;6.00;3.57;;;7.50;99.90;7.90;97364.00;;;;5096838;28;20211;-71
2023/05/04 02:00:48;;;;;;;5.87;3.80;;;7.20;99.90;8.20;97368.00;;;;5093815;28;20195;-71
2023/05/04 02:03:37;;;;;;;4.77;4.00;;;7.00;99.90;8.50;97373.00;;;;5100554;28;20202;-70
2023/05/04 02:06:26;;;;;;;10.07;4.70;;;7.00;99.90;8.70;97373.00;;;;5095392;28;20675;-68
2023/05/04 02:09:15;;;;;;;12.70;4.40;;;7.00;99.90;8.10;97368.00;;;;5092917;28;20229;-68
2023/05/04 02:12:04;;;;;;;3.87;3.37;;;7.00;99.90;7.90;97371.00;;;;5085284;28;20304;-71
2023/05/04 02:14:54;;;;;;;9.30;4.60;;;6.80;99.90;8.20;97375.00;;;;5085544;28;20199;-68
2023/05/04 02:17:43;;;;;;;3.83;3.53;;;6.80;99.90;8.80;97379.00;;;;5092921;28;20685;-68
2023/05/04 02:20:32;;;;;;;4.30;3.90;;;6.90;99.90;8.90;97380.00;;;;5101125;28;20202;-69
2023/05/04 02:23:20;;;;;;;4.27;3.40;;;6.90;99.90;8.60;97368.00;;;;5088909;28;20226;-68
2023/05/04 02:26:10;;;;;;;8.77;4.40;;;7.00;99.90;8.70;97368.00;;;;5085603;28;20218;-68
2023/05/04 02:28:58;;;;;;;3.63;3.33;;;6.90;99.90;8.60;97377.00;;;;5090861;28;20206;-68
2023/05/04 02:31:48;;;;;;;4.63;4.13;;;6.90;99.90;8.10;97372.00;;;;5103160;28;20202;-69
2023/05/04 02:34:37;;;;;;;4.53;4.00;;;6.80;99.90;7.90;97363.00;;;;5091878;28;20232;-70
2023/05/04 02:37:26;;;;;;;6.57;4.10;;;6.60;99.90;8.40;97375.00;;;;5099844;28;20215;-70
2023/05/04 02:40:15;;;;;;;5.97;4.07;;;6.70;99.90;8.60;97380.00;;;;5094434;28;20674;-70
2023/05/04 02:43:03;;;;;;;8.67;4.70;;;6.70;99.90;8.60;97373.00;;;;5099096;28;20222;-70
2023/05/04 02:45:52;;;;;;;6.00;4.27;;;6.70;99.90;8.40;97392.00;;;;5092554;28;20273;-70
2023/05/04 02:48:42;;;;;;;9.37;4.23;;;6.70;99.90;8.40;97377.00;;;;5092211;28;20195;-70
2023/05/04 02:51:31;;;;;;;7.10;4.30;;;6.70;99.90;8.50;97383.00;;;;5101241;28;20199;-70
2023/05/04 02:54:20;;;;;;;4.47;4.07;;;6.70;99.90;8.30;97382.00;;;;5099254;28;20206;-70
2023/05/04 02:57:08;;;;;;;4.20;3.80;;;6.70;99.90;8.20;97380.00;;;;5102120;28;20253;-70
2023/05/04 02:59:57;;;;;;;4.40;4.00;;;6.60;99.90;8.30;97378.00;;;;5095529;28;20213;-70
2023/05/04 03:02:46;;;;;;;4.30;3.80;;;6.60;99.90;8.30;97381.00;;;;5086553;28;20215;-70
2023/05/04 03:05:36;;;;;;;6.93;4.03;;;6.60;99.90;8.30;97382.00;;;;5096136;28;20572;-70
2023/05/04 03:08:24;;;;;;;5.63;4.40;;;6.60;99.90;8.20;97380.00;;;;5096812;28;20192;-70
2023/05/04 03:11:13;;;;;;;4.93;4.00;;;6.50;99.90;7.90;97386.00;;;;5101771;28;20191;-70
2023/05/04 03:14:02;;;;;;;4.73;4.20;;;6.50;99.90;7.90;97389.00;;;;5098637;28;20682;-70
2023/05/04 03:16:51;;;;;;;5.87;4.17;;;6.40;99.90;7.80;97385.00;;;;5103641;28;20217;-70
2023/05/04 03:19:39;;;;;;;4.77;3.83;;;6.40;99.90;7.90;97372.00;;;;5096676;28;20198;-70
2023/05/04 03:22:30;;;;;;;5.17;4.20;;;6.30;99.90;8.00;97371.00;;;;5101091;28;20219;-70
2023/05/04 03:25:18;;;;;;;5.63;4.43;;;6.30;99.90;7.90;97379.00;;;;5098871;28;20199;-70
2023/05/04 03:28:07;;;;;;;4.87;4.47;;;6.30;99.90;7.80;97377.00;;;;5093604;28;20214;-70
2023/05/04 03:30:56;;;;;;;4.30;3.83;;;6.20;99.90;7.60;97378.00;;;;5093182;28;20620;-70
2023/05/04 03:33:44;;;;;;;7.17;3.93;;;6.20;99.90;7.60;97386.00;;;;5099928;28;20190;-70
2023/05/04 03:36:33;;;;;;;5.00;3.70;;;6.10;99.90;7.70;97386.00;;;;5094688;28;20220;-70
2023/05/04 03:39:23;;;;;;;7.77;4.43;;;6.10;99.90;7.90;97389.00;;;;5088023;28;20277;-70
2023/05/04 03:42:12;;;;;;;5.57;4.23;;;6.10;99.90;7.40;97386.00;;;;5102052;28;20199;-70
2023/05/04 03:45:01;;;;;;;4.30;3.90;;;6.10;99.90;6.80;97378.00;;;;5096272;28;20198;-70
2023/05/04 03:47:51;;;;;;;6.03;3.70;;;5.90;99.90;6.90;97379.00;;;;5097263;28;20607;-70
2023/05/04 03:50:40;;;;;;;6.13;5.30;;;5.70;99.90;7.00;97374.00;;;;5093580;28;20197;-70
2023/05/04 03:53:28;;;;;;;4.63;4.13;;;5.70;99.90;6.80;97394.00;;;;5093093;28;20789;-69
2023/05/04 03:56:18;;;;;;;7.30;3.93;;;5.60;99.90;6.60;97379.00;;;;5092113;28;20234;-70
2023/05/04 03:59:07;;;;;;;6.57;5.20;;;5.50;99.90;6.70;97374.00;;;;5100630;28;20276;-69
2023/05/04 04:01:56;;;;;;;5.43;4.03;;;5.40;99.90;6.50;97374.00;;;;5106081;28;20269;-68
2023/05/04 04:04:45;;;;;;;9.30;4.90;;;5.40;99.90;6.80;97374.00;;;;5090847;28;20222;-68
2023/05/04 04:07:33;;;;;;;5.73;5.13;;;5.40;99.90;7.00;97381.00;;;;5087629;28;20207;-67
2023/05/04 04:10:22;;;;;;;4.40;4.00;;;5.50;99.90;7.40;97386.00;;;;5091682;28;20207;-68
2023/05/04 04:13:12;;;;;;;5.07;4.67;;;5.60;99.90;7.40;97381.00;;;;5087979;28;20203;-69
2023/05/04 04:16:01;;;;;;;5.10;4.60;;;5.60;99.90;7.40;97387.00;;;;5093673;28;20608;-68
2023/05/04 04:18:51;;;;;;;8.60;4.27;;;5.70;99.90;7.20;97393.00;;;;5087415;28;20202;-67
2023/05/04 04:21:40;;;;;;;4.93;4.43;;;5.70;99.90;7.20;97380.00;;;;5077366;28;20671;-68
2023/05/04 04:24:28;;;;;;;5.93;4.27;;;5.60;99.90;7.30;97382.00;;;;5082910;28;20238;-68
2023/05/04 04:27:17;;;;;;;4.70;4.17;;;5.60;99.90;7.50;97391.00;;;;5088781;28;20218;-68
2023/05/04 04:30:09;;;;;;;4.10;3.67;;;5.70;99.90;7.60;97377.00;;;;5096107;28;20277;-68
2023/05/04 04:32:58;;;;;;;5.70;4.77;;;5.70;99.90;7.60;97396.00;;;;5095059;28;20203;-69
2023/05/04 04:35:47;;;;;;;5.40;4.63;;;5.70;99.90;7.40;97395.00;;;;5092929;28;20221;-69
2023/05/04 04:38:36;;;;;;;4.10;3.70;;;5.80;99.90;7.70;97397.00;;;;5094960;28;20259;-69
2023/05/04 04:41:25;;;;;;;5.37;4.27;;;5.80;99.90;7.90;97395.00;;;;5088473;28;20674;-68
2023/05/04 04:44:14;;;;;;;5.77;5.10;;;5.90;99.90;8.00;97399.00;;;;5082754;28;20226;-69
2023/05/04 04:47:04;;;;;;;5.50;4.60;;;6.00;99.90;8.20;97403.00;;;;5086025;28;20220;-68
2023/05/04 04:49:52;;;;;;;4.40;4.00;;;6.10;99.90;8.10;97401.00;;;;5076794;28;20196;-69
2023/05/04 04:52:41;;;;;;;4.03;3.67;;;6.20;99.90;8.10;97404.00;;;;5095250;28;20214;-69
2023/05/04 04:55:30;;;;;;;4.73;3.70;;;6.30;99.90;7.90;97400.00;;;;5101937;28;20239;-70
2023/05/04 04:58:18;;;;;;;4.57;4.10;;;6.30;99.90;8.20;97400.00;;;;5089899;28;20212;-69
2023/05/04 05:01:07;;;;;;;5.90;4.03;;;6.40;99.90;8.10;97396.00;;;;5086237;28;20595;-70
2023/05/04 05:03:58;;;;;;;4.90;4.30;;;6.40;99.90;8.30;97400.00;;;;5083692;28;20223;-68
2023/05/04 05:06:46;;;;;;;3.87;3.57;;;6.50;99.90;8.10;97394.00;;;;5088513;28;20288;-70
2023/05/04 05:09:35;;;;;;;5.17;4.23;;;6.60;99.90;8.00;97404.00;;;;5076583;28;20618;-69
2023/05/04 05:12:24;;;;;;;3.93;3.63;;;6.60;99.90;8.10;97394.00;;;;5090120;28;20739;-68
2023/05/04 05:15:13;;;;;;;4.77;4.10;;;6.60;99.90;8.40;97405.00;;;;5094342;28;20277;-68
2023/05/04 05:18:02;;;;;;;4.87;4.20;;;6.70;99.90;8.40;97397.00;;;;5094016;28;20210;-67
2023/05/04 05:20:52;;;;;;;8.83;4.63;;;6.70;99.90;8.40;97401.00;;;;5097165;28;20202;-69
2023/05/04 05:23:41;;;;;;;6.73;3.70;;;6.70;99.90;8.70;97384.00;;;;5095419;28;20775;-69
2023/05/04 05:26:30;;;;;;;3.93;3.57;;;6.80;99.90;8.90;97392.00;;;;5094031;28;20745;-69
2023/05/04 05:29:18;;;;;;;4.53;3.83;;;7.00;99.90;9.10;97400.00;;;;5095352;28;20698;-69
2023/05/04 05:32:07;;;;;;;4.77;4.33;;;7.10;99.90;9.30;97400.00;;;;5099302;28;20207;-68
2023/05/04 05:34:56;;;;;;;6.47;3.67;;;7.30;99.90;9.20;97403.00;;;;5098169;28;20256;-69
2023/05/04 05:37:47;;;;;;;5.73;3.87;;;7.40;99.90;9.20;97397.00;;;;5095628;28;20760;-68
2023/05/04 05:40:36;;;;;;;8.17;4.97;;;7.50;99.90;9.50;97397.00;;;;5090813;28;20253;-68
2023/05/04 05:43:25;;;;;;;6.93;5.47;;;7.60;99.90;9.60;97387.00;;;;5091354;28;20194;-67
2023/05/04 05:46:15;;;;;;;5.47;4.43;;;7.80;99.90;9.70;97388.00;;;;5090294;28;20229;-68
2023/05/04 05:49:06;;;;;;;6.47;4.87;;;7.90;99.90;9.40;97384.00;;;;5096966;28;20199;-71
2023/05/04 05:51:54;;;;;;;3.93;3.57;;;7.90;99.90;9.20;97384.00;;;;5095926;28;20207;-72
2023/05/04 05:54:44;;;;;;;5.80;4.27;;;8.00;99.90;9.40;97375.00;;;;5090291;28;20199;-71
2023/05/04 05:57:33;;;;;;;9.97;5.57;;;8.00;99.90;10.20;97389.00;;;;5098967;28;20710;-67
2023/05/04 06:00:23;;;;;;;9.73;5.90;;;8.20;99.90;10.20;97385.00;;;;5090776;28;20215;-69
2023/05/04 06:03:11;;;;;;;6.50;5.80;;;8.30;99.90;10.50;97387.00;;;;5091456;28;20198;-70
2023/05/04 06:06:00;;;;;;;6.37;5.10;;;8.50;99.90;10.90;97385.00;;;;5090611;28;20229;-70
2023/05/04 06:08:49;;;;;;;6.60;5.50;;;8.70;99.90;10.90;97384.00;;;;5093817;28;20694;-69
2023/05/04 06:11:39;;;;;;;8.80;5.43;;;8.90;99.90;11.50;97379.00;;;;5097522;28;20226;-69
2023/05/04 06:14:27;;;;;;;12.03;5.30;;;9.10;99.90;11.50;97382.00;;;;5101188;28;20252;-70
2023/05/04 06:17:17;;;;;;;8.23;6.10;;;9.30;99.90;11.90;97375.00;;;;5086421;28;20226;-70
2023/05/04 06:20:08;;;;;;;6.43;5.23;;;9.50;99.90;12.30;97384.00;;;;5081836;28;20667;-70
2023/05/04 06:22:57;;;;;;;7.27;5.93;;;9.80;99.90;12.70;97376.00;;;;5085177;28;20207;-69
2023/05/04 06:25:46;;;;;;;8.43;5.63;;;10.00;99.90;13.00;97375.00;;;;5080186;28;20306;-70
2023/05/04 06:28:36;;;;;;;8.30;5.07;;;10.40;99.90;13.40;97381.00;;;;5080253;28;20219;-71
2023/05/04 06:31:25;;;;;;;8.27;5.80;;;10.60;99.90;13.70;97378.00;;;;5080315;28;20886;-71
2023/05/04 06:34:15;;;;;;;9.93;5.13;;;10.90;99.90;13.80;97375.00;;;;5080629;28;20191;-71
2023/05/04 06:37:04;;;;;;;7.57;5.50;;;11.20;99.90;13.90;97373.00;;;;5083563;28;20223;-71
2023/05/04 06:39:53;;;;;;;7.43;6.17;;;11.40;99.90;14.30;97380.00;;;;5086092;28;20214;-71
2023/05/04 06:42:41;;;;;;;6.13;5.37;;;11.60;99.90;14.70;97383.00;;;;5085942;28;20292;-70
2023/05/04 06:45:34;;;;;;;5.80;5.17;;;11.90;99.90;14.60;97379.00;;;;5083676;28;20294;-70
2023/05/04 06:48:23;;;;;;;7.80;6.30;;;12.10;99.90;15.00;97380.00;;;;5080774;28;20200;-70
2023/05/04 06:51:12;;;;;;;7.63;4.43;;;12.20;99.90;15.00;97379.00;;;;5078485;28;20672;-67
2023/05/04 06:54:01;;;;;;;6.67;4.70;;;12.50;99.90;15.50;97374.00;;;;5081443;28;20199;-67
2023/05/04 06:56:50;;;;;;;7.20;4.83;;;12.70;99.90;15.70;97372.00;;;;5082121;28;20211;-71
2023/05/04 06:59:39;;;;;;;4.70;3.80;;;12.90;99.90;15.40;97375.00;;;;5077373;28;20208;-67
2023/05/04 07:02:30;;;;;;;5.27;4.47;;;13.10;99.90;15.70;97370.00;;;;5088170;28;20249;-66
2023/05/04 07:05:19;;;;;;;5.40;4.13;;;13.20;99.90;15.80;97374.00;;;;5078979;28;20399;-69
2023/05/04 07:08:09;;;;;;;6.28;4.40;;;13.40;99.90;16.00;97366.00;;;;5081067;28;20401;-68
2023/05/04 07:10:57;;;;;;;7.03;3.60;;;13.60;99.90;16.10;97378.00;;;;5085144;28;20665;-68
2023/05/04 07:13:46;;;;;;;4.50;4.03;;;13.70;99.90;16.10;97372.00;;;;5088131;28;20570;-70
2023/05/04 07:16:36;;;;;;;6.13;4.10;;;13.80;99.90;16.40;97376.00;;;;5087909;28;20250;-68
2023/05/04 07:19:26;;;;;;;4.00;3.23;;;13.90;99.90;16.80;97375.00;;;;5076741;28;20557;-69
2023/05/04 07:22:15;;;;;;;5.20;3.80;;;14.10;99.90;17.00;97374.00;;;;5079826;28;20219;-68
2023/05/04 07:25:04;;;;;;;6.73;3.63;;;14.20;99.90;17.00;97371.00;;;;5084112;28;20220;-68
2023/05/04 07:27:53;;;;;;;6.43;3.97;;;14.40;99.90;17.00;97365.00;;;;5087792;28;20252;-69
2023/05/04 07:30:42;;;;;;;5.10;3.67;;;14.30;99.90;17.30;97374.00;;;;5078714;28;20690;-69
2023/05/04 07:33:31;;;;;;;5.80;3.87;;;14.60;99.90;17.10;97382.00;;;;5089492;28;20991;-71
2023/05/04 07:36:22;;;;;;;6.10;3.10;;;14.70;99.90;17.10;97364.00;;;;5088267;28;20211;-70
2023/05/04 07:39:12;;;;;;;3.23;2.93;;;14.80;99.90;17.30;97358.00;;;;5085540;28;20671;-70
2023/05/04 07:42:02;;;;;;;3.47;3.17;;;14.90;99.90;17.40;97356.00;;;;5088970;28;20196;-70
2023/05/04 07:44:52;;;;;;;5.23;3.13;;;15.00;99.90;17.30;97351.00;;;;5085734;28;20588;-71
2023/05/04 07:47:41;;;;;;;2.87;2.47;;;15.20;99.90;16.70;97354.00;;;;5087692;28;20223;-70
2023/05/04 07:50:30;;;;;;;2.70;2.37;;;15.10;99.90;17.70;97357.00;;;;5093474;28;20195;-69
2023/05/04 07:53:20;;;;;;;3.53;3.10;;;15.20;99.90;18.10;97349.00;;;;5088085;28;20192;-70
2023/05/04 07:56:11;;;;;;;2.93;2.27;;;15.40;99.90;18.40;97347.00;;;;5094771;28;20269;-70
2023/05/04 07:58:59;;;;;;;4.83;3.00;;;15.60;99.20;17.60;97355.00;;;;5098441;28;20207;-73
2023/05/04 08:01:48;;;;;;;2.80;2.23;;;15.70;97.30;18.40;97339.00;;;;5091006;28;20200;-74
2023/05/04 08:04:37;;;;;;;2.67;2.43;;;15.80;96.70;17.80;97335.00;;;;5090452;28;20253;-68
2023/05/04 08:07:26;;;;;;;2.40;2.20;;;15.90;94.00;17.70;97340.00;;;;5090383;28;20803;-71
2023/05/04 08:10:16;;;;;;;2.57;2.00;;;16.00;92.40;18.00;97347.00;;;;5084785;28;20195;-66
2023/05/04 08:13:05;;;;;;;1.93;1.83;;;16.10;91.60;17.70;97331.00;;;;5100875;28;20198;-69
2023/05/04 08:15:53;;;;;;;2.03;1.83;;;15.90;90.20;18.80;97348.00;;;;5078984;28;20605;-69
2023/05/04 08:18:42;;;;;;;1.60;1.50;;;16.00;90.80;19.00;97353.00;;;;5080418;28;20192;-70
2023/05/04 08:21:31;;;;;;;2.23;1.77;;;16.20;88.50;18.80;97337.00;;;;5088733;28;20200;-70
2023/05/04 08:24:20;;;;;;;6.50;1.93;;;16.30;84.10;19.40;97337.00;;;;5078320;28;20256;-70
2023/05/04 08:27:13;;;;;;;3.83;2.43;;;16.50;86.40;19.60;97341.00;;;;5083043;28;20230;-69
2023/05/04 08:30:02;;;;;;;2.03;1.83;;;16.70;82.30;19.90;97334.00;;;;5084322;28;20207;-70
2023/05/04 08:32:54;;;;;;;2.67;1.30;;;16.90;82.70;20.00;97338.00;;;;5082946;28;20192;-69
2023/05/04 08:35:42;;;;;;;1.87;1.30;;;17.10;79.00;20.30;97340.00;;;;5081394;28;20199;-69
2023/05/04 08:38:31;;;;;;;1.53;1.33;;;17.30;79.90;20.60;97344.00;;;;5092540;28;20204;-70
2023/05/04 08:41:20;;;;;;;3.87;1.50;;;;;20.80;97339.00;;;;5089671;28;20251;-69
2023/05/04 08:44:12;;;;;;;1.67;1.57;;;;;20.70;97340.00;;;;5096463;28;20199;-70
2023/05/04 08:47:03;;;;;;;1.90;1.80;;;;;20.70;97333.00;;;;5091135;28;20239;-70
2023/05/04 08:49:53;;;;;;;4.00;1.77;;;;;20.70;97334.00;;;;5083877;28;20241;-73
2023/05/04 08:52:46;;;;;;;1.97;1.47;;;;;20.90;97345.00;;;;5079390;28;20249;-71
2023/05/04 08:55:37;;;;;;;2.00;1.70;;;;;20.90;97345.00;;;;5085745;28;20191;-70
2023/05/04 08:58:27;;;;;;;2.63;1.90;;;;;21.00;97337.00;;;;5085998;28;20223;-69
2023/05/04 09:01:18;;;;;;;3.00;1.97;;;;;21.00;97343.00;;;;5090849;28;20204;-69
2023/05/04 09:04:07;;;;;;;3.43;2.23;;;;;21.50;97342.00;;;;5087727;28;20208;-70
2023/05/04 09:06:57;;;;;;;2.07;1.87;;;;;21.00;97335.00;;;;5082513;28;20234;-71
2023/05/04 09:09:47;;;;;;;2.97;2.00;;;;;21.50;97338.00;;;;5086181;28;20210;-70
2023/05/04 09:12:36;;;;;;;2.17;1.77;;;;;21.70;97340.00;;;;5084626;28;20199;-71
2023/05/04 09:15:25;;;;;;;2.80;1.60;;;;;22.30;97341.00;;;;5084397;28;20219;-71
2023/05/04 09:18:16;;;;;;;1.80;1.70;;;;;22.30;97331.00;;;;5087018;28;20231;-70
2023/05/04 09:21:05;;;;;;;2.63;1.40;;;;;22.00;97334.00;;;;5083085;28;20207;-72
2023/05/04 09:23:54;;;;;;;4.00;1.70;;;;;22.80;97322.00;;;;5084810;28;20694;-71
2023/05/04 09:26:43;;;;;;;3.00;1.60;;;;;22.60;97317.00;;;;5085215;28;20227;-71
2023/05/04 09:29:36;;;;;;;2.10;1.90;;;;;22.50;97317.00;;;;5082719;28;20204;-70
2023/05/04 09:32:25;;;;;;;2.67;1.63;;;;;22.80;97325.00;;;;5082401;28;20231;-69
2023/05/04 09:35:17;;;;;;;2.23;1.70;;;;;23.20;97330.00;;;;5082211;28;20206;-69
2023/05/04 09:38:10;;;;;;;3.10;1.60;;;;;23.70;97332.00;;;;5085579;28;20195;-70
2023/05/04 09:40:58;;;;;;;2.87;1.77;;;;;23.00;97324.00;;;;5085001;28;20203;-70
2023/05/04 09:43:48;;;;;;;3.60;2.20;;;;;23.40;97320.00;;;;5086734;28;20495;-69
2023/05/04 09:46:37;;;;;;;2.03;1.33;;;;;23.40;97310.00;;;;5081997;28;20268;-70
2023/05/04 09:49:32;;;;;;;1.97;1.77;;;;;23.60;97309.00;;;;5085911;28;20203;-71
2023/05/04 09:52:23;;;;;;;3.37;2.43;;;;;23.20;97307.00;;;;5082644;28;20214;-72
2023/05/04 09:55:14;;;;;;;2.80;2.27;;;;;22.90;97312.00;;;;5086300;28;20630;-71
2023/05/04 09:58:03;;;;;;;2.13;1.93;;;;;23.30;97299.00;;;;5080955;28;20210;-71
2023/05/04 10:00:53;;;;;;;2.73;2.20;;;;;23.20;97303.00;;;;5081215;28;20623;-69
2023/05/04 10:03:43;;;;;;;2.83;2.30;;;;;24.10;97306.00;;;;5081662;28;20618;-70
2023/05/04 10:06:33;;;;;;;3.40;2.50;;;;;24.00;97300.00;;;;5075591;28;20332;-70
2023/05/04 10:09:24;;;;;;;2.80;2.50;;;;;23.10;97298.00;;;;5082844;28;20215;-69
2023/05/04 10:12:13;;;;;;;2.87;2.67;;;;;22.90;97293.00;;;;5089318;28;20202;-73
2023/05/04 10:15:02;;;;;;;4.23;2.30;;;;;22.40;97283.00;;;;5087295;28;20265;-72
2023/05/04 10:18:00;;;;;;;5.63;4.43;;;;;24.00;97283.00;;;;5088432;28;20215;-71
2023/05/04 10:21:01;;;;;;;3.67;2.57;;;;;23.00;97267.00;;;;5088429;28;20210;-69
2023/05/04 10:24:04;;;;;;;2.30;2.10;;;;;24.40;97280.00;;;;5087803;28;20198;-66
2023/05/04 10:27:02;;;;;;;2.20;1.93;;;;;25.00;97281.00;;;;5087751;28;20315;-70
2023/05/04 10:29:52;;;;;;;3.10;2.60;;;;;24.70;97267.00;;;;5090321;28;20261;-69
2023/05/04 10:32:41;;;;;;;3.70;2.20;;;;;24.70;97267.00;;;;5089642;28;20202;-70
2023/05/04 10:35:30;;;;;;;2.50;2.13;;;;;23.60;97267.00;;;;5088143;28;20569;-69
2023/05/04 10:38:19;;;;;;;3.27;2.90;;;;;24.20;97264.00;;;;5081553;28;20199;-69
2023/05/04 10:41:15;;;;;;;1.90;1.80;;;;;22.20;97252.00;;;;5084489;28;20233;-70
2023/05/04 10:44:08;;;;;;;3.33;2.00;;;;;24.30;97249.00;;;;5085276;28;20208;-70
2023/05/04 10:47:02;;;;;;;3.63;2.50;;;;;24.50;97252.00;;;;5084381;28;20230;-70
2023/05/04 10:50:02;;;;;;;2.90;2.53;;;;;24.10;97242.00;;;;5086722;28;20276;-68
2023/05/04 10:52:52;;;;;;;4.70;2.50;;;;;25.00;97241.00;;;;5082776;28;20300;-68
2023/05/04 10:55:42;;;;;;;2.43;2.10;;;;;24.90;97237.00;;;;5084534;28;20203;-69
2023/05/04 10:58:31;;;;;;;3.53;2.03;;;;;25.70;97241.00;;;;5085315;28;20292;-69
2023/05/04 11:01:22;;;;;;;3.00;2.33;;;;;26.20;97244.00;;;;5090736;28;20199;-69
2023/05/04 11:04:20;;;;;;;2.90;2.03;;;;;26.30;97237.00;;;;5094440;28;20226;-69
2023/05/04 11:07:09;;;;;;;3.37;2.87;;;;;26.80;97229.00;;;;5095213;28;20258;-69
2023/05/04 11:09:59;;;;;;;3.83;2.30;;;;;26.70;97235.00;;;;5085678;28;20211;-71
2023/05/04 11:12:48;;;;;;;3.17;2.40;;;;;25.00;97215.00;;;;5092221;28;20261;-75
2023/05/04 11:15:47;;;;;;;2.10;1.90;;;;;23.50;97219.00;;;;5099920;28;20267;-72
2023/05/04 11:18:37;;;;;;;5.10;2.73;;;;;24.00;97213.00;;;;5098157;28;20264;-71
2023/05/04 11:21:27;;;;;;;2.90;2.30;;;;;25.60;97228.00;;;;5099184;28;20592;-71
2023/05/04 11:24:16;;;;;;;4.20;2.67;;;;;26.10;97230.00;;;;5101006;28;20199;-70
2023/05/04 11:27:05;;;;;;;2.47;2.00;;;22.80;59.90;26.80;97223.00;;;;5095389;28;20738;-70
2023/05/04 11:29:58;;;;;;;6.00;2.80;;;23.10;61.50;26.00;97229.00;;;;5088138;28;20196;-71
2023/05/04 11:32:48;;;;;;;2.70;2.37;;;23.30;59.50;25.30;97217.00;;;;5092845;28;20195;-70
2023/05/04 11:35:39;;;;;;;2.50;2.30;;;23.20;56.90;26.30;97224.00;;;;5093616;28;20198;-69
2023/05/04 11:38:28;;;;;;;3.20;2.63;;;23.40;59.40;25.40;97216.00;;;;5093724;28;20303;-72
2023/05/04 11:41:17;;;;;;;2.50;2.30;;;23.40;58.40;25.20;97215.00;;;;5091628;28;20221;-71
2023/05/04 11:44:08;;;;;;;4.37;2.63;;;23.20;57.40;25.60;97211.00;;;;5088085;28;20200;-71
2023/05/04 11:46:57;;;;;;;4.37;2.83;;;23.30;58.20;25.80;97212.00;;;;5086009;28;20223;-70
2023/05/04 11:49:46;;;;;;;3.03;2.80;;;23.30;57.30;26.20;97216.00;;;;5087688;28;20831;-69
2023/05/04 11:52:39;;;;;;;3.65;2.55;;;23.60;57.00;27.00;97203.00;;;;5084430;28;20200;-70
2023/05/04 11:55:29;;;;;;;3.03;2.83;;;23.70;57.30;25.10;97202.00;;;;5083213;28;20428;-71
2023/05/04 11:58:25;;;;;;;4.53;2.50;;;23.80;56.90;25.60;97201.00;;;;5079249;28;20234;-68
2023/05/04 12:01:14;;;;;;;2.60;2.40;;;23.70;56.40;26.70;97192.00;;;;5086117;28;20584;-68
2023/05/04 12:04:03;;;;;;;3.43;2.40;;;24.10;56.80;26.20;97189.00;;;;5084131;28;20268;-73
2023/05/04 12:06:52;;;;;;;3.67;2.87;;;24.00;56.70;26.50;97190.00;;;;5081152;28;20216;-69
2023/05/04 12:09:49;;;;;;;4.07;2.40;;;24.00;56.10;26.50;97183.00;;;;5080493;28;20693;-69
2023/05/04 12:12:37;;;;;;;5.20;2.27;;;24.30;56.30;25.20;97182.00;;;;5083278;28;20631;-70
2023/05/04 12:15:35;;;;;;;2.90;2.40;;;24.00;53.50;26.00;97182.00;;;;5084202;28;20193;-69
2023/05/04 12:18:28;;;;;;;3.57;2.40;;;23.90;54.40;27.30;97183.00;;;;5092820;28;20300;-69
2023/05/04 12:21:18;;;;;;;2.90;2.20;;;24.00;55.90;28.10;97193.00;;;;5081108;28;20272;-68
2023/05/04 12:24:08;;;;;;;3.17;2.87;;;24.40;55.00;28.00;97198.00;;;;5096468;28;20200;-70
2023/05/04 12:26:58;;;;;;;2.73;2.23;;;24.90;56.20;27.10;97195.00;;;;5084313;28;20275;-71
2023/05/04 12:29:46;;;;;;;3.20;2.20;;;25.00;55.90;28.20;97201.00;;;;5086992;28;20748;-69
2023/05/04 12:32:35;;;;;;;2.43;2.23;;;25.20;56.20;28.90;97205.00;;;;5093002;28;20198;-69
2023/05/04 12:35:25;;;;;;;2.70;2.50;;;25.40;56.20;28.70;97193.00;;;;5084126;28;20205;-70
2023/05/04 12:38:13;;;;;;;5.33;2.37;;;25.80;54.70;29.70;97203.00;;;;5093477;28;20217;-70
2023/05/04 12:41:03;;;;;;;3.13;1.93;;;26.00;55.60;29.80;97194.00;;;;5087928;28;20207;-70
2023/05/04 12:43:53;;;;;;;3.07;2.77;;;26.30;54.40;28.70;97191.00;;;;5086731;28;20196;-70
2023/05/04 12:46:42;;;;;;;4.77;2.70;;;26.20;53.20;28.60;97187.00;;;;5080898;28;20225;-72
2023/05/04 12:49:30;;;;;;;6.83;2.60;;;26.20;53.50;29.10;97179.00;;;;5087454;28;20208;-71
2023/05/04 12:52:19;;;;;;;2.80;2.33;;;26.20;51.30;30.00;97190.00;;;;5080843;28;20206;-70
2023/05/04 12:55:08;;;;;;;3.00;2.20;;;26.40;52.70;29.10;97178.00;;;;5086644;28;20760;-70
2023/05/04 12:57:57;;;;;;;2.83;2.40;;;26.50;51.70;29.30;97170.00;;;;5087390;28;20259;-71
2023/05/04 13:00:47;;;;;;;3.33;2.05;;;26.60;51.40;28.90;97176.00;;;;5086765;28;20201;-70